»·PEaware :: SAS250 ENBR-ENVA

SAS250 :: ENBR-ENVA

FLIGHT INFORMATION

Flight Status: Arrived
Operator:
SAS
More flights by this operator :: More flights under this callsign
Pilot: Andrew J. (13363)
Aircraft: BOEING 737-800
(B738)
More flights by this aircraft type
Origin: ENBR Flesland
Norway
Destination: ENVA Vaernes AB
Norway
More flights between these airports :: More routes between these airports
Route: INTU1D INTUM NELSU NELS1M
File this flight plan on PilotEdge
Remarks: Twitch.tv / ajonesieee
Altitude:
(Current/Filed)
35,000ft
Speed:
(Current/Filed)
460kts
Departed: 05-Aug-17 12:13 PM
Arrived: 05-Aug-17 01:09 PM
Distance/Time
Traveled:
249nm/0:56
Distance/Time
To Go:
Arrived

Flight Plot

Page will automatically refresh every two minutes.

Flight plan parsing failed; only flown route is shown


Map Options




Map Legend


Flown Route
Filed Route
Departure Airport
Arrival Airport
Navaid (VOR, NDB)
Fix

Horizontal Profiles

Position Reports

Time Latitude Longitude Heading Altitude Ground
Speed
05-Aug-17 11:55 60.288347 5.228490 318 166ft 0kts
05-Aug-17 11:56 60.288347 5.228490 318 166ft 0kts
05-Aug-17 11:57 60.288347 5.228490 318 166ft 0kts
05-Aug-17 11:58 60.288347 5.228490 318 166ft 0kts
05-Aug-17 11:59 60.288347 5.228490 318 166ft 0kts
05-Aug-17 12:00 60.288347 5.228490 318 166ft 0kts
05-Aug-17 12:01 60.288347 5.228490 318 166ft 0kts
05-Aug-17 12:02 60.288347 5.228490 318 166ft 0kts
05-Aug-17 12:03 60.288347 5.228490 318 166ft 0kts
05-Aug-17 12:04 60.288346 5.228490 318 166ft 0kts
05-Aug-17 12:05 60.287979 5.228958 337 166ft 2kts
05-Aug-17 12:06 60.287559 5.229160 354 166ft 2kts
05-Aug-17 12:07 60.287575 5.228103 223 166ft 6kts
05-Aug-17 12:08 60.287251 5.226775 260 166ft 0kts
05-Aug-17 12:09 60.287251 5.226775 259 166ft 0kts
05-Aug-17 12:10 60.287251 5.226775 259 166ft 0kts
05-Aug-17 12:11 60.287251 5.226775 259 166ft 0kts
05-Aug-17 12:12 60.287133 5.225449 258 166ft 7kts
05-Aug-17 12:13 60.285847 5.223146 185 166ft 6kts
05-Aug-17 12:14 60.282779 5.223760 226 166ft 4kts
05-Aug-17 12:15 60.282899 5.221660 350 166ft 2kts
05-Aug-17 12:16 60.307869 5.213175 348 489ft 165kts
05-Aug-17 12:17 60.357105 5.199371 350 2667ft 198kts
05-Aug-17 12:18 60.422299 5.176120 348 4766ft 270kts
05-Aug-17 12:19 60.496437 5.169441 26 8282ft 283kts
05-Aug-17 12:20 60.564062 5.255935 32 10732ft 323kts
05-Aug-17 12:21 60.630207 5.349485 33 13224ft 344kts
05-Aug-17 12:22 60.705891 5.459088 34 16011ft 359kts
05-Aug-17 12:23 60.785968 5.576127 34 18588ft 375kts
05-Aug-17 12:24 60.866651 5.694857 35 20895ft 390kts
05-Aug-17 12:25 60.946093 5.812539 35 22935ft 403kts
05-Aug-17 12:26 61.034646 5.952388 38 24991ft 416kts
05-Aug-17 12:27 61.114556 6.082196 38 26753ft 425kts
05-Aug-17 12:28 61.195709 6.214864 39 28793ft 420kts
05-Aug-17 12:29 61.283971 6.360243 39 30775ft 413kts
05-Aug-17 12:30 61.371535 6.505559 39 32448ft 409kts
05-Aug-17 12:31 61.459197 6.652826 40 33624ft 413kts
05-Aug-17 12:32 61.539696 6.787745 40 34683ft 413kts
05-Aug-17 12:33 61.615335 6.915950 40 34728ft 434kts
05-Aug-17 12:34 61.693612 7.049456 40 34734ft 455kts
05-Aug-17 12:35 61.782080 7.201365 40 34703ft 459kts
05-Aug-17 12:36 61.865959 7.346527 40 34698ft 460kts
05-Aug-17 12:37 61.954854 7.501555 40 34697ft 460kts
05-Aug-17 12:38 62.041292 7.653458 41 34697ft 460kts
05-Aug-17 12:39 62.108603 7.772547 41 34696ft 459kts
05-Aug-17 12:40 62.182788 7.904630 41 34695ft 460kts
05-Aug-17 12:41 62.264930 8.051910 41 34695ft 460kts
05-Aug-17 12:42 62.352609 8.210308 41 34695ft 460kts
05-Aug-17 12:43 62.433829 8.358162 41 34695ft 460kts
05-Aug-17 12:44 62.524390 8.524321 41 34695ft 460kts
05-Aug-17 12:45 62.604497 8.672439 42 34696ft 460kts
05-Aug-17 12:46 62.697191 8.845199 42 34696ft 459kts
05-Aug-17 12:47 62.785543 9.011304 42 34561ft 446kts
05-Aug-17 12:48 62.868671 9.168841 42 32754ft 422kts
05-Aug-17 12:49 62.937639 9.300439 42 30979ft 426kts
05-Aug-17 12:50 63.009483 9.438495 41 29613ft 454kts
05-Aug-17 12:51 63.084618 9.589987 55 27883ft 450kts
05-Aug-17 12:52 63.117895 9.792067 79 26303ft 451kts
05-Aug-17 12:53 63.134330 9.987098 81 24825ft 453kts
05-Aug-17 12:54 63.151741 10.229425 82 22982ft 457kts
05-Aug-17 12:55 63.170066 10.496456 82 20961ft 461kts
05-Aug-17 12:56 63.187138 10.754156 83 18890ft 439kts
05-Aug-17 12:57 63.203007 10.998884 82 17322ft 394kts
05-Aug-17 12:58 63.217426 11.228807 83 15012ft 371kts
05-Aug-17 12:59 63.224830 11.438563 97 13157ft 341kts
05-Aug-17 13:00 63.225667 11.614082 76 11760ft 315kts
05-Aug-17 13:01 63.255525 11.758012 52 10488ft 276kts
05-Aug-17 13:02 63.307860 11.858164 27 9304ft 257kts
05-Aug-17 13:03 63.357484 11.798567 284 8018ft 238kts
05-Aug-17 13:04 63.382722 11.673931 321 7017ft 231kts
05-Aug-17 13:05 63.422953 11.575350 311 5940ft 215kts
05-Aug-17 13:06 63.455448 11.472572 274 4871ft 206kts
05-Aug-17 13:07 63.459253 11.350157 271 4259ft 203kts
05-Aug-17 13:08 63.457706 11.236285 266 3014ft 185kts
05-Aug-17 13:09 63.457043 11.126980 270 1786ft 170kts
05-Aug-17 13:10 63.457443 11.028855 271 783ft 153kts
05-Aug-17 13:11 63.457563 10.935784 269 61ft 147kts
05-Aug-17 13:12 63.457638 10.895677 271 24ft 29kts
05-Aug-17 13:13 63.456054 10.893580 90 24ft 5kts
05-Aug-17 13:14 63.456054 10.899173 90 26ft 8kts
05-Aug-17 13:15 63.456057 10.902225 90 30ft 4kts
05-Aug-17 13:16 63.456869 10.892175 184 24ft 13kts
05-Aug-17 13:17 63.457557 10.951751 270 199ft 150kts
05-Aug-17 13:18 63.457560 10.949719 269 177ft 150kts
05-Aug-17 13:19 63.457504 11.008295 269 628ft 152kts
05-Aug-17 13:20 63.457561 10.922292 271 41ft 117kts
05-Aug-17 13:21 63.456126 10.906653 90 37ft 15kts
05-Aug-17 13:22 63.455774 10.915330 165 40ft 1kts
05-Aug-17 13:23 63.455095 10.915488 180 40ft 0kts

Navigation Log

Ident Type
Flight plan parsing failed, navigation log unavailable